createdAt,value
2022-08-01T00:00:54.810Z,0.50
2022-08-01T00:01:54.833Z,0.60
2022-08-01T00:02:54.866Z,0.60
2022-08-01T00:03:54.780Z,0.50
2022-08-01T00:04:54.748Z,0.50
2022-08-01T00:05:54.751Z,0.40
2022-08-01T00:06:54.715Z,0.50
2022-08-01T00:07:54.712Z,0.40
2022-08-01T00:08:54.702Z,0.50
2022-08-01T00:09:54.683Z,0.50
2022-08-01T00:10:54.691Z,0.40
2022-08-01T00:11:59.614Z,0.40
2022-08-01T00:12:55.653Z,0.50
2022-08-01T00:13:54.646Z,0.50
2022-08-01T00:14:54.653Z,0.70
2022-08-01T00:15:54.664Z,0.40
2022-08-01T00:16:54.604Z,0.40
2022-08-01T00:17:54.591Z,0.40
2022-08-01T00:18:54.585Z,0.40
2022-08-01T00:19:54.588Z,0.40
2022-08-01T00:20:54.578Z,0.60
2022-08-01T00:21:54.584Z,0.50
2022-08-01T00:22:54.526Z,0.40
2022-08-01T00:23:54.528Z,0.60
2022-08-01T00:24:54.513Z,0.40
2022-08-01T00:25:54.505Z,0.70
2022-08-01T00:26:54.485Z,0.50
2022-08-01T00:27:54.493Z,0.40
2022-08-01T00:28:54.456Z,0.60
2022-08-01T00:30:12.593Z,0.50
2022-08-01T00:30:55.432Z,0.50
2022-08-01T00:31:54.437Z,0.50
2022-08-01T00:32:54.426Z,0.50
2022-08-01T00:33:54.397Z,0.60
2022-08-01T00:34:54.397Z,0.50
2022-08-01T00:35:54.376Z,0.50
2022-08-01T00:36:54.375Z,0.50
2022-08-01T00:37:54.388Z,0.60
2022-08-01T00:38:54.346Z,0.50
2022-08-01T00:39:54.329Z,0.50
2022-08-01T00:40:54.309Z,0.40
2022-08-01T00:41:59.625Z,0.50
2022-08-01T00:42:55.308Z,0.50
2022-08-01T00:43:54.286Z,0.40
2022-08-01T00:44:54.280Z,0.40
2022-08-01T00:45:54.262Z,0.50
2022-08-01T00:46:54.258Z,0.50
2022-08-01T00:47:54.992Z,0.60
2022-08-01T00:48:54.287Z,0.50
2022-08-01T00:49:54.220Z,0.50
2022-08-01T00:50:54.199Z,0.60
2022-08-01T00:51:54.191Z,0.40
2022-08-01T00:52:54.188Z,0.50
2022-08-01T00:53:54.191Z,1.00
2022-08-01T00:54:54.160Z,0.70
2022-08-01T00:55:54.141Z,0.50
2022-08-01T00:56:54.137Z,0.50
2022-08-01T00:58:03.055Z,0.40
2022-08-01T00:58:55.146Z,0.50
2022-08-01T00:59:54.095Z,0.50
2022-08-01T01:00:54.824Z,0.40
2022-08-01T01:01:54.122Z,0.60
2022-08-01T01:02:54.061Z,1.00
2022-08-01T01:03:59.048Z,0.40
2022-08-01T01:04:55.057Z,0.50
2022-08-01T01:05:54.019Z,0.50
2022-08-01T01:06:54.001Z,0.60
2022-08-01T01:07:54.012Z,0.50
2022-08-01T01:08:53.986Z,0.50
2022-08-01T01:09:54.002Z,0.50
2022-08-01T01:10:53.983Z,0.60
2022-08-01T01:11:53.955Z,0.40
2022-08-01T01:12:53.941Z,0.60
2022-08-01T01:13:53.944Z,0.50
2022-08-01T01:14:53.920Z,0.50
2022-08-01T01:15:53.925Z,0.70
2022-08-01T01:16:53.933Z,0.40
2022-08-01T01:17:53.877Z,0.50
2022-08-01T01:18:53.874Z,0.60
2022-08-01T01:19:53.857Z,0.50
2022-08-01T01:20:53.869Z,0.50
2022-08-01T01:21:53.892Z,0.40
2022-08-01T01:22:53.895Z,0.60
2022-08-01T01:23:53.822Z,0.40
2022-08-01T01:24:53.803Z,0.40
2022-08-01T01:25:53.796Z,0.40
2022-08-01T01:26:53.793Z,0.70
2022-08-01T01:27:53.768Z,0.50
2022-08-01T01:28:53.774Z,0.60
2022-08-01T01:29:59.254Z,0.60
2022-08-01T01:30:54.739Z,0.40
2022-08-01T01:31:53.727Z,0.50
2022-08-01T01:32:53.730Z,0.50
2022-08-01T01:33:53.700Z,0.50
2022-08-01T01:34:53.689Z,0.50
2022-08-01T01:35:53.680Z,0.50
2022-08-01T01:36:53.670Z,0.50
2022-08-01T01:37:53.680Z,0.50
2022-08-01T01:38:53.644Z,0.50
2022-08-01T01:39:54.300Z,0.50
2022-08-01T01:40:53.618Z,1.00
2022-08-01T01:41:53.609Z,0.40
2022-08-01T01:42:53.624Z,0.40
2022-08-01T01:43:53.593Z,0.80
2022-08-01T01:44:53.572Z,0.60
2022-08-01T01:45:53.561Z,0.70
2022-08-01T01:46:53.552Z,0.50
2022-08-01T01:47:53.571Z,0.40
2022-08-01T01:48:53.566Z,0.60
2022-08-01T01:49:53.511Z,0.50
2022-08-01T01:50:53.524Z,0.70
2022-08-01T01:52:03.916Z,0.80
2022-08-01T01:52:54.503Z,0.30
2022-08-01T01:53:53.483Z,0.40
2022-08-01T01:54:53.487Z,0.50
2022-08-01T01:55:53.449Z,0.60
2022-08-01T01:56:53.446Z,0.60
2022-08-01T01:57:53.430Z,0.50
2022-08-01T01:58:53.437Z,0.50
2022-08-01T01:59:53.410Z,0.50
2022-08-01T02:00:53.386Z,0.50
2022-08-01T02:02:04.879Z,0.50
2022-08-01T02:02:54.477Z,0.50
2022-08-01T02:03:53.376Z,0.50
2022-08-01T02:04:53.347Z,0.60
2022-08-01T02:05:53.348Z,0.60
2022-08-01T02:06:53.323Z,0.40
2022-08-01T02:07:53.309Z,0.60
2022-08-01T02:08:54.318Z,0.50
2022-08-01T02:09:53.289Z,0.40
2022-08-01T02:10:53.273Z,0.60
2022-08-01T02:12:08.463Z,0.70
2022-08-01T02:12:54.253Z,0.60
2022-08-01T02:13:53.236Z,0.60
2022-08-01T02:14:53.261Z,0.60
2022-08-01T02:15:59.361Z,0.60
2022-08-01T02:16:54.226Z,0.50
2022-08-01T02:17:53.189Z,0.40
2022-08-01T02:18:53.187Z,0.60
2022-08-01T02:19:53.190Z,0.50
2022-08-01T02:20:53.179Z,0.70
2022-08-01T02:21:53.157Z,0.60
2022-08-01T02:22:53.153Z,0.70
2022-08-01T02:23:53.132Z,0.80
2022-08-01T02:24:53.130Z,0.50
2022-08-01T02:26:10.550Z,0.60
2022-08-01T02:26:54.093Z,0.60
2022-08-01T02:27:53.094Z,0.50
2022-08-01T02:28:53.076Z,0.50
2022-08-01T02:29:53.059Z,0.70
2022-08-01T02:30:53.072Z,0.70
2022-08-01T02:31:53.044Z,0.50
2022-08-01T02:32:53.024Z,0.70
2022-08-01T02:33:53.019Z,0.80
2022-08-01T02:34:53.033Z,0.80
2022-08-01T02:36:31.326Z,0.80
2022-08-01T02:36:53.972Z,0.60
2022-08-01T02:37:52.965Z,0.50
2022-08-01T02:38:52.965Z,0.80
2022-08-01T02:39:52.956Z,0.50
2022-08-01T02:40:52.942Z,0.50
2022-08-01T02:41:52.972Z,0.50
2022-08-01T02:42:52.913Z,0.50
2022-08-01T02:43:53.569Z,0.60
2022-08-01T02:44:52.896Z,0.50
2022-08-01T02:45:52.886Z,0.60
2022-08-01T02:46:52.902Z,0.60
2022-08-01T02:47:52.847Z,0.50
2022-08-01T02:48:52.896Z,0.50
2022-08-01T02:49:53.730Z,0.40
2022-08-01T02:50:52.853Z,0.60
2022-08-01T02:51:52.849Z,0.60
2022-08-01T02:52:52.816Z,0.60
2022-08-01T02:53:52.789Z,0.40
2022-08-01T02:54:52.797Z,0.50
2022-08-01T02:55:52.799Z,0.50
2022-08-01T02:56:52.802Z,0.40
2022-08-01T02:57:56.882Z,0.60
2022-08-01T02:58:53.730Z,0.90
2022-08-01T02:59:52.761Z,0.70
2022-08-01T03:00:52.748Z,0.50
2022-08-01T03:01:52.833Z,0.50
2022-08-01T03:02:52.702Z,0.60
2022-08-01T03:03:52.714Z,0.70
2022-08-01T03:04:56.768Z,0.50
2022-08-01T03:05:52.642Z,0.60
2022-08-01T03:06:52.669Z,0.70
2022-08-01T03:07:52.632Z,0.50
2022-08-01T03:08:52.608Z,0.50
2022-08-01T03:09:52.612Z,0.50
2022-08-01T03:10:52.604Z,0.50
2022-08-01T03:11:52.581Z,0.50
2022-08-01T03:12:52.608Z,0.50
2022-08-01T03:13:52.577Z,0.40
2022-08-01T03:14:52.564Z,0.60
2022-08-01T03:15:52.533Z,0.50
2022-08-01T03:16:52.532Z,0.50
2022-08-01T03:17:52.532Z,0.60
2022-08-01T03:18:52.513Z,0.50
2022-08-01T03:19:52.485Z,0.60
2022-08-01T03:20:52.478Z,0.60
2022-08-01T03:21:52.474Z,0.50
2022-08-01T03:22:52.464Z,0.80
2022-08-01T03:23:55.214Z,0.50
2022-08-01T03:24:52.465Z,0.50
2022-08-01T03:25:52.428Z,0.50
2022-08-01T03:26:52.416Z,0.60
2022-08-01T03:27:52.405Z,0.50
2022-08-01T03:28:52.393Z,0.50
2022-08-01T03:29:52.371Z,0.80
2022-08-01T03:30:52.379Z,0.60
2022-08-01T03:31:52.357Z,0.60
2022-08-01T03:32:52.374Z,0.60
2022-08-01T03:33:52.343Z,0.40
2022-08-01T03:34:52.327Z,0.70
2022-08-01T03:35:52.315Z,0.60
2022-08-01T03:36:52.315Z,0.60
2022-08-01T03:38:15.166Z,0.50
2022-08-01T03:38:53.288Z,0.70
2022-08-01T03:39:52.267Z,0.50
2022-08-01T03:40:52.248Z,0.60
2022-08-01T03:41:56.504Z,0.70
2022-08-01T03:42:52.241Z,0.50
2022-08-01T03:43:52.211Z,0.60
2022-08-01T03:44:52.207Z,0.80
2022-08-01T03:45:52.198Z,0.70
2022-08-01T03:46:52.186Z,0.90
2022-08-01T03:47:52.195Z,0.90
2022-08-01T03:48:52.202Z,0.70
2022-08-01T03:49:52.148Z,1.00
2022-08-01T03:50:52.146Z,1.20
2022-08-01T03:51:52.140Z,0.80
2022-08-01T03:52:52.141Z,0.80
2022-08-01T03:53:52.100Z,1.00
2022-08-01T03:54:52.098Z,1.60
2022-08-01T03:55:52.073Z,0.60
2022-08-01T03:56:52.082Z,0.90
2022-08-01T03:57:52.063Z,1.20
2022-08-01T03:58:52.081Z,1.00
2022-08-01T03:59:52.042Z,1.00
2022-08-01T04:00:52.025Z,1.10
2022-08-01T04:01:52.034Z,1.00
2022-08-01T04:02:52.000Z,0.80
2022-08-01T04:03:52.016Z,0.70
2022-08-01T04:04:51.980Z,0.80
2022-08-01T04:05:51.975Z,0.70
2022-08-01T04:06:51.964Z,0.80
2022-08-01T04:07:51.935Z,1.20
2022-08-01T04:08:51.945Z,0.90
2022-08-01T04:09:51.933Z,0.80
2022-08-01T04:10:51.916Z,1.20
2022-08-01T04:11:51.899Z,0.90
2022-08-01T04:12:51.885Z,1.20
2022-08-01T04:13:51.880Z,0.90
2022-08-01T04:14:51.884Z,0.80
2022-08-01T04:15:51.855Z,1.00
2022-08-01T04:16:51.845Z,0.90
2022-08-01T04:17:51.824Z,1.00
2022-08-01T04:18:51.829Z,1.10
2022-08-01T04:19:51.815Z,0.80
2022-08-01T04:20:51.797Z,1.00
2022-08-01T04:21:51.796Z,1.70
2022-08-01T04:22:51.789Z,1.00
2022-08-01T04:23:53.504Z,1.10
2022-08-01T04:24:56.402Z,1.00
2022-08-01T04:25:52.758Z,1.20
2022-08-01T04:26:51.738Z,0.80
2022-08-01T04:27:52.548Z,1.00
2022-08-01T04:28:51.699Z,1.10
2022-08-01T04:29:51.678Z,1.30
2022-08-01T04:30:51.703Z,1.40
2022-08-01T04:31:51.680Z,1.30
2022-08-01T04:32:51.688Z,1.10
2022-08-01T04:33:51.640Z,1.10
2022-08-01T04:34:51.626Z,1.30
2022-08-01T04:36:02.348Z,1.00
2022-08-01T04:36:52.628Z,0.80
2022-08-01T04:37:51.605Z,1.30
2022-08-01T04:38:51.594Z,0.80
2022-08-01T04:39:51.573Z,1.80
2022-08-01T04:40:51.577Z,0.80
2022-08-01T04:41:51.555Z,1.00
2022-08-01T04:42:51.565Z,0.90
2022-08-01T04:43:51.526Z,0.80
2022-08-01T04:44:51.518Z,0.80
2022-08-01T04:45:51.521Z,0.90
2022-08-01T04:46:51.523Z,1.00
2022-08-01T04:47:51.481Z,1.10
2022-08-01T04:48:51.565Z,1.20
2022-08-01T04:49:51.488Z,1.00
2022-08-01T04:50:51.470Z,1.10
2022-08-01T04:51:51.436Z,1.20
2022-08-01T04:52:51.439Z,1.20
2022-08-01T04:53:51.415Z,1.20
2022-08-01T04:54:51.417Z,1.00
2022-08-01T04:55:51.427Z,1.10
2022-08-01T04:56:51.650Z,1.10
2022-08-01T04:57:51.371Z,1.10
2022-08-01T04:58:51.371Z,1.10
2022-08-01T04:59:51.349Z,1.10
2022-08-01T05:00:51.418Z,1.20
2022-08-01T05:01:51.367Z,1.00
2022-08-01T05:02:51.334Z,1.10
2022-08-01T05:03:51.295Z,1.00
2022-08-01T05:04:51.291Z,1.60
2022-08-01T05:05:51.287Z,1.20
2022-08-01T05:06:51.277Z,1.10
2022-08-01T05:07:51.383Z,1.30
2022-08-01T05:08:51.246Z,1.30
2022-08-01T05:09:51.234Z,1.10
2022-08-01T05:10:51.217Z,1.20
2022-08-01T05:11:51.235Z,1.20
2022-08-01T05:12:51.207Z,1.10
2022-08-01T05:13:51.209Z,1.10
2022-08-01T05:14:51.189Z,1.10
2022-08-01T05:15:51.176Z,1.10
2022-08-01T05:16:51.182Z,1.70
2022-08-01T05:17:51.216Z,1.30
2022-08-01T05:18:51.136Z,1.00
2022-08-01T05:19:51.146Z,1.10
2022-08-01T05:20:51.113Z,1.00
2022-08-01T05:21:51.109Z,1.20
2022-08-01T05:22:51.085Z,1.50
2022-08-01T05:23:51.078Z,1.80
2022-08-01T05:24:51.051Z,1.10
2022-08-01T05:25:56.143Z,1.20
2022-08-01T05:26:52.049Z,1.10
2022-08-01T05:27:51.153Z,1.40
2022-08-01T05:28:51.013Z,1.50
2022-08-01T05:29:51.011Z,1.10
2022-08-01T05:30:51.012Z,1.00
2022-08-01T05:31:50.967Z,1.50
2022-08-01T05:32:50.964Z,1.50
2022-08-01T05:33:50.964Z,1.00
2022-08-01T05:34:50.963Z,1.10
2022-08-01T05:35:50.944Z,1.30
2022-08-01T05:36:55.283Z,1.50
2022-08-01T05:37:51.913Z,1.20
2022-08-01T05:38:50.914Z,1.10
2022-08-01T05:39:50.884Z,1.40
2022-08-01T05:40:50.933Z,0.90
2022-08-01T05:41:50.866Z,1.10
2022-08-01T05:42:50.853Z,1.30
2022-08-01T05:43:50.859Z,1.10
2022-08-01T05:44:50.840Z,0.80
2022-08-01T05:45:50.852Z,1.30
2022-08-01T05:46:50.827Z,1.10
2022-08-01T05:47:50.785Z,1.40
2022-08-01T05:48:50.835Z,2.20
2022-08-01T05:49:50.766Z,1.10
2022-08-01T05:50:52.185Z,1.10
2022-08-01T05:51:50.755Z,1.20
2022-08-01T05:52:50.738Z,1.40
2022-08-01T05:53:50.729Z,1.10
2022-08-01T05:54:50.740Z,1.10
2022-08-01T05:55:50.739Z,1.20
2022-08-01T05:56:50.737Z,1.20
2022-08-01T05:57:50.686Z,1.20
2022-08-01T05:58:50.672Z,1.60
2022-08-01T05:59:50.651Z,1.10
2022-08-01T06:00:50.672Z,1.20
2022-08-01T06:01:50.733Z,1.50
2022-08-01T06:02:50.649Z,1.20
2022-08-01T06:03:50.608Z,1.20
2022-08-01T06:04:50.599Z,1.20
2022-08-01T06:05:50.587Z,1.40
2022-08-01T06:06:50.594Z,1.30
2022-08-01T06:07:50.607Z,1.30
2022-08-01T06:08:51.638Z,1.30
2022-08-01T06:09:50.548Z,1.60
2022-08-01T06:10:50.564Z,1.40
2022-08-01T06:11:50.519Z,1.20
2022-08-01T06:12:50.530Z,1.60
2022-08-01T06:13:50.494Z,1.40
2022-08-01T06:14:50.501Z,1.20
2022-08-01T06:15:50.477Z,1.70
2022-08-01T06:16:50.473Z,1.20
2022-08-01T06:17:50.450Z,1.30
2022-08-01T06:18:53.832Z,1.40
2022-08-01T06:19:51.427Z,2.00
2022-08-01T06:20:50.410Z,1.60
2022-08-01T06:21:50.406Z,1.50
2022-08-01T06:22:52.568Z,1.20
2022-08-01T06:23:50.418Z,1.50
2022-08-01T06:24:50.395Z,1.30
2022-08-01T06:25:50.373Z,1.30
2022-08-01T06:26:50.355Z,1.50
2022-08-01T06:27:50.340Z,1.50
2022-08-01T06:28:50.340Z,1.30
2022-08-01T06:29:53.396Z,1.40
2022-08-01T06:30:50.302Z,1.50
2022-08-01T06:31:50.303Z,1.30
2022-08-01T06:32:50.284Z,1.70
2022-08-01T06:33:50.264Z,1.50
2022-08-01T06:34:50.471Z,1.50
2022-08-01T06:35:50.245Z,1.50
2022-08-01T06:36:50.251Z,1.40
2022-08-01T06:37:50.238Z,1.40
2022-08-01T06:38:50.204Z,1.50
2022-08-01T06:39:50.216Z,1.40
2022-08-01T06:40:50.200Z,1.50
2022-08-01T06:41:50.186Z,1.40
2022-08-01T06:42:50.171Z,1.40
2022-08-01T06:43:50.156Z,1.60
2022-08-01T06:44:50.156Z,1.30
2022-08-01T06:45:50.137Z,1.60
2022-08-01T06:46:50.134Z,1.70
2022-08-01T06:47:50.806Z,1.60
2022-08-01T06:48:50.149Z,1.40
2022-08-01T06:49:50.098Z,2.00
2022-08-01T06:50:50.085Z,1.40
2022-08-01T06:51:50.081Z,1.50
2022-08-01T06:52:50.038Z,1.50
2022-08-01T06:53:50.180Z,1.40
2022-08-01T06:54:50.028Z,1.50
2022-08-01T06:55:50.022Z,1.40
2022-08-01T06:56:50.008Z,1.90
2022-08-01T06:57:50.057Z,1.30
2022-08-01T06:58:49.986Z,1.50
2022-08-01T06:59:54.155Z,1.90
2022-08-01T07:00:52.515Z,1.50
2022-08-01T07:01:50.951Z,1.60
2022-08-01T07:02:49.933Z,1.70
2022-08-01T07:03:53.605Z,1.50
2022-08-01T07:04:49.913Z,1.80
2022-08-01T07:05:49.892Z,1.50
2022-08-01T07:06:49.911Z,1.40
2022-08-01T07:07:49.868Z,1.50
2022-08-01T07:08:49.879Z,1.70
2022-08-01T07:09:49.854Z,1.60
2022-08-01T07:10:49.835Z,1.60
2022-08-01T07:11:49.843Z,1.60
2022-08-01T07:12:49.817Z,1.60
2022-08-01T07:13:49.812Z,1.70
2022-08-01T07:14:49.791Z,2.00
2022-08-01T07:15:49.785Z,1.90
2022-08-01T07:16:49.829Z,1.60
2022-08-01T07:17:49.760Z,1.60
2022-08-01T07:18:49.744Z,1.70
2022-08-01T07:19:49.742Z,1.80
2022-08-01T07:20:51.950Z,1.80
2022-08-01T07:21:50.242Z,1.60
2022-08-01T07:22:49.707Z,1.60
2022-08-01T07:23:49.695Z,2.00
2022-08-01T07:24:49.693Z,1.50
2022-08-01T07:25:52.630Z,1.70
2022-08-01T07:26:54.202Z,1.70
2022-08-01T07:27:49.635Z,1.60
2022-08-01T07:28:49.650Z,1.90
2022-08-01T07:29:49.628Z,2.20
2022-08-01T07:30:49.612Z,1.60
2022-08-01T07:31:49.596Z,1.80
2022-08-01T07:32:49.571Z,1.80
2022-08-01T07:33:49.604Z,1.60
2022-08-01T07:34:49.579Z,2.10
2022-08-01T07:35:49.564Z,1.90
2022-08-01T07:36:49.551Z,1.70
2022-08-01T07:37:49.571Z,1.90
2022-08-01T07:38:49.509Z,1.90
2022-08-01T07:39:49.517Z,1.70
2022-08-01T07:40:49.508Z,1.70
2022-08-01T07:42:06.651Z,2.20
2022-08-01T07:42:50.460Z,1.90
2022-08-01T07:43:57.120Z,1.80
2022-08-01T07:44:50.486Z,1.90
2022-08-01T07:45:49.430Z,1.90
2022-08-01T07:46:49.435Z,1.90
2022-08-01T07:47:49.430Z,1.70
2022-08-01T07:48:49.444Z,2.10
2022-08-01T07:49:49.407Z,1.90
2022-08-01T07:50:49.374Z,2.20
2022-08-01T07:52:03.202Z,1.70
2022-08-01T07:52:50.355Z,1.80
2022-08-01T07:53:49.358Z,2.00
2022-08-01T07:54:52.228Z,1.90
2022-08-01T07:55:49.342Z,1.90
2022-08-01T07:56:49.313Z,2.10
2022-08-01T07:57:49.294Z,1.70
2022-08-01T07:58:49.300Z,1.90
2022-08-01T07:59:49.280Z,1.70
2022-08-01T08:00:49.281Z,1.60
2022-08-01T08:01:49.295Z,1.60
2022-08-01T08:02:49.248Z,1.80
2022-08-01T08:03:49.235Z,1.90
2022-08-01T08:04:49.491Z,1.70
2022-08-01T08:05:58.816Z,1.90
2022-08-01T08:06:50.251Z,1.90
2022-08-01T08:07:49.186Z,2.20
2022-08-01T08:08:49.208Z,2.40
2022-08-01T08:09:51.023Z,2.00
2022-08-01T08:10:49.143Z,1.90
2022-08-01T08:11:49.139Z,1.70
2022-08-01T08:12:49.136Z,2.10
2022-08-01T08:13:49.115Z,2.00
2022-08-01T08:14:49.116Z,1.80
2022-08-01T08:15:49.115Z,2.00
2022-08-01T08:16:49.108Z,2.40
2022-08-01T08:17:54.951Z,1.80
2022-08-01T08:18:50.049Z,2.10
2022-08-01T08:19:49.066Z,1.80
2022-08-01T08:20:50.123Z,1.90
2022-08-01T08:21:49.190Z,1.70
2022-08-01T08:22:49.048Z,2.00
2022-08-01T08:23:49.006Z,1.70
2022-08-01T08:24:48.996Z,1.60
2022-08-01T08:25:48.982Z,1.90
2022-08-01T08:26:48.992Z,1.70
2022-08-01T08:27:48.976Z,1.60
2022-08-01T08:28:48.945Z,1.90
2022-08-01T08:29:48.941Z,1.70
2022-08-01T08:30:48.918Z,1.70
2022-08-01T08:31:50.898Z,1.80
2022-08-01T08:32:48.965Z,1.70
2022-08-01T08:33:48.890Z,2.00
2022-08-01T08:34:48.873Z,1.90
2022-08-01T08:35:53.652Z,2.20
2022-08-01T08:36:49.872Z,1.90
2022-08-01T08:37:49.116Z,1.90
2022-08-01T08:38:48.833Z,2.00
2022-08-01T08:39:48.824Z,1.80
2022-08-01T08:40:48.812Z,1.70
2022-08-01T08:41:49.491Z,1.70
2022-08-01T08:42:48.834Z,2.00
2022-08-01T08:43:48.837Z,2.00
2022-08-01T08:44:48.804Z,1.60
2022-08-01T08:45:59.858Z,2.00
2022-08-01T08:46:49.741Z,2.60
2022-08-01T08:47:48.749Z,1.80
2022-08-01T08:48:48.780Z,1.90
2022-08-01T08:49:49.431Z,1.60
2022-08-01T08:50:48.686Z,1.60
2022-08-01T08:51:48.722Z,1.70
2022-08-01T08:52:48.696Z,1.70
2022-08-01T08:53:48.707Z,1.70
2022-08-01T08:54:48.704Z,1.70
2022-08-01T08:55:56.349Z,1.70
2022-08-01T08:56:49.622Z,2.10
2022-08-01T08:57:48.625Z,1.70
2022-08-01T08:58:48.627Z,1.70
2022-08-01T08:59:48.616Z,1.60
2022-08-01T09:00:48.612Z,1.90
2022-08-01T09:01:48.571Z,1.80
2022-08-01T09:02:48.597Z,1.80
2022-08-01T09:03:48.555Z,1.50
2022-08-01T09:04:48.539Z,1.60
2022-08-01T09:05:48.535Z,1.70
2022-08-01T09:06:48.505Z,1.60
2022-08-01T09:07:48.506Z,1.60
2022-08-01T09:08:48.481Z,2.00
2022-08-01T09:09:48.480Z,1.40
2022-08-01T09:10:48.454Z,1.70
2022-08-01T09:11:56.739Z,1.90
2022-08-01T09:12:49.434Z,1.70
2022-08-01T09:13:48.423Z,1.70
2022-08-01T09:14:48.431Z,1.70
2022-08-01T09:15:48.443Z,1.60
2022-08-01T09:16:49.173Z,1.70
2022-08-01T09:17:48.390Z,1.80
2022-08-01T09:18:53.461Z,1.90
2022-08-01T09:19:49.356Z,1.90
2022-08-01T09:20:48.355Z,1.70
2022-08-01T09:21:48.345Z,1.60
2022-08-01T09:22:48.340Z,1.60
2022-08-01T09:23:54.336Z,1.70
2022-08-01T09:24:49.304Z,1.50
2022-08-01T09:25:48.316Z,1.80
2022-08-01T09:26:48.276Z,1.60
2022-08-01T09:27:48.265Z,1.70
2022-08-01T09:28:48.247Z,1.50
2022-08-01T09:29:54.355Z,1.60
2022-08-01T09:30:49.248Z,1.30
2022-08-01T09:31:48.217Z,1.70
2022-08-01T09:32:48.203Z,1.70
2022-08-01T09:33:48.218Z,1.70
2022-08-01T09:34:48.212Z,1.60
2022-08-01T09:35:48.189Z,2.10
2022-08-01T09:36:48.164Z,1.60
2022-08-01T09:37:48.493Z,1.60
2022-08-01T09:38:50.997Z,1.60
2022-08-01T09:39:48.136Z,2.10
2022-08-01T09:40:48.141Z,2.10
2022-08-01T09:41:48.100Z,2.60
2022-08-01T09:42:48.095Z,1.80
2022-08-01T09:43:48.077Z,1.60
2022-08-01T09:44:54.987Z,2.00
2022-08-01T09:45:50.829Z,1.70
2022-08-01T09:46:48.061Z,1.60
2022-08-01T09:47:48.041Z,1.80
2022-08-01T09:48:49.246Z,2.00
2022-08-01T09:49:52.029Z,1.90
2022-08-01T09:50:49.003Z,1.70
2022-08-01T09:51:59.116Z,2.00
2022-08-01T09:52:48.981Z,1.70
2022-08-01T09:53:50.892Z,1.70
2022-08-01T09:54:47.959Z,2.10
2022-08-01T09:55:47.942Z,2.00
2022-08-01T09:56:47.948Z,2.10
2022-08-01T09:57:47.918Z,2.20
2022-08-01T09:58:47.900Z,2.10
2022-08-01T09:59:58.341Z,2.10
2022-08-01T10:00:48.908Z,1.90
2022-08-01T10:01:47.882Z,2.00
2022-08-01T10:02:47.912Z,2.50
2022-08-01T10:03:47.917Z,2.10
2022-08-01T10:04:47.850Z,2.10
2022-08-01T10:05:49.928Z,1.80
2022-08-01T10:06:47.869Z,2.10
2022-08-01T10:07:47.815Z,1.80
2022-08-01T10:08:47.808Z,2.30
2022-08-01T10:09:47.777Z,2.20
2022-08-01T10:10:47.766Z,2.10
2022-08-01T10:11:47.761Z,2.00
2022-08-01T10:12:47.768Z,2.10
2022-08-01T10:13:47.755Z,2.10
2022-08-01T10:14:50.217Z,1.90
2022-08-01T10:15:47.716Z,2.10
2022-08-01T10:17:03.174Z,2.10
2022-08-01T10:17:50.780Z,2.30
2022-08-01T10:18:47.718Z,2.30
2022-08-01T10:19:47.669Z,2.40
2022-08-01T10:20:47.652Z,2.70
2022-08-01T10:21:58.492Z,2.30
2022-08-01T10:22:48.653Z,2.50
2022-08-01T10:23:47.625Z,2.30
2022-08-01T10:24:47.604Z,2.40
2022-08-01T10:25:47.613Z,2.30
2022-08-01T10:26:47.592Z,2.30
2022-08-01T10:27:47.591Z,2.70
2022-08-01T10:28:47.555Z,2.70
2022-08-01T10:30:06.807Z,3.00
2022-08-01T10:30:49.322Z,2.70
2022-08-01T10:31:50.478Z,2.70
2022-08-01T10:32:50.729Z,3.20
2022-08-01T10:33:51.935Z,3.10
2022-08-01T10:34:48.488Z,3.10
2022-08-01T10:35:48.230Z,2.90
2022-08-01T10:36:47.503Z,3.00
2022-08-01T10:37:51.531Z,3.20
2022-08-01T10:38:48.460Z,2.80
2022-08-01T10:39:47.434Z,3.10
2022-08-01T10:40:47.438Z,2.80
2022-08-01T10:41:47.430Z,2.70
2022-08-01T10:42:47.408Z,2.90
2022-08-01T10:43:47.414Z,2.50
2022-08-01T10:44:48.888Z,2.60
2022-08-01T10:45:47.361Z,2.70
2022-08-01T10:46:47.372Z,2.70
2022-08-01T10:47:50.767Z,2.60
2022-08-01T10:48:47.369Z,2.30
2022-08-01T10:49:47.324Z,2.60
2022-08-01T10:50:48.452Z,2.30
2022-08-01T10:51:51.287Z,2.20
2022-08-01T10:52:48.289Z,2.40
2022-08-01T10:53:47.283Z,2.30
2022-08-01T10:54:52.640Z,2.30
2022-08-01T10:55:48.260Z,2.60
2022-08-01T10:56:48.776Z,2.30
2022-08-01T10:57:52.479Z,2.40
2022-08-01T10:58:48.733Z,2.60
2022-08-01T10:59:50.627Z,2.40
2022-08-01T11:00:48.189Z,2.40
2022-08-01T11:01:47.231Z,2.40
2022-08-01T11:02:47.181Z,2.70
2022-08-01T11:03:57.574Z,2.60
2022-08-01T11:04:48.151Z,2.70
2022-08-01T11:05:47.131Z,2.80
2022-08-01T11:06:47.148Z,2.40
2022-08-01T11:07:47.123Z,2.50
2022-08-01T11:08:47.111Z,2.20
2022-08-01T11:09:51.499Z,2.50
2022-08-01T11:10:48.103Z,2.30
2022-08-01T11:11:47.058Z,2.80
2022-08-01T11:12:47.065Z,2.20
2022-08-01T11:13:47.056Z,2.10
2022-08-01T11:14:55.543Z,2.30
2022-08-01T11:15:49.958Z,2.00
2022-08-01T11:16:47.125Z,2.00
2022-08-01T11:17:46.994Z,2.10
2022-08-01T11:18:47.019Z,2.00
2022-08-01T11:19:46.992Z,2.10
2022-08-01T11:20:46.979Z,2.00
2022-08-01T11:21:57.790Z,2.00
2022-08-01T11:22:47.957Z,2.30
2022-08-01T11:23:46.954Z,2.00
2022-08-01T11:24:46.931Z,2.20
2022-08-01T11:26:05.364Z,2.10
2022-08-01T11:26:47.928Z,1.80
2022-08-01T11:27:46.897Z,2.00
2022-08-01T11:29:10.859Z,2.10
2022-08-01T11:29:47.865Z,2.10
2022-08-01T11:30:46.881Z,1.90
2022-08-01T11:31:46.850Z,1.80
2022-08-01T11:33:06.570Z,1.70
2022-08-01T11:33:47.819Z,1.90
2022-08-01T11:34:46.809Z,1.70
2022-08-01T11:35:46.810Z,1.80
2022-08-01T11:37:03.125Z,1.60
2022-08-01T11:37:47.776Z,1.80
2022-08-01T11:38:46.775Z,1.80
2022-08-01T11:39:46.771Z,1.80
2022-08-01T11:40:46.787Z,1.90
2022-08-01T11:41:46.735Z,1.70
2022-08-01T11:42:46.754Z,1.70
2022-08-01T11:43:46.734Z,1.70
2022-08-01T11:44:46.711Z,1.80
2022-08-01T11:45:46.684Z,1.80
2022-08-01T11:46:46.699Z,1.70
2022-08-01T11:47:46.688Z,1.80
2022-08-01T11:48:46.683Z,1.60
2022-08-01T11:49:49.220Z,1.80
2022-08-01T11:50:46.641Z,2.00
2022-08-01T11:51:46.628Z,1.70
2022-08-01T11:52:46.684Z,2.10
2022-08-01T11:53:46.596Z,1.80
2022-08-01T11:54:46.579Z,1.70
2022-08-01T11:55:51.312Z,1.80
2022-08-01T11:56:48.081Z,1.90
2022-08-01T11:57:46.537Z,1.80
2022-08-01T11:58:46.537Z,1.70
2022-08-01T12:00:02.410Z,1.70
2022-08-01T12:00:47.533Z,1.70
2022-08-01T12:01:46.518Z,1.80
2022-08-01T12:02:46.670Z,1.90
2022-08-01T12:03:46.479Z,2.10
2022-08-01T12:04:46.465Z,1.90
2022-08-01T12:05:46.481Z,2.10
2022-08-01T12:06:46.493Z,2.00
2022-08-01T12:07:46.430Z,1.90
2022-08-01T12:08:46.427Z,2.20
2022-08-01T12:09:46.415Z,1.90
2022-08-01T12:10:49.854Z,1.90
2022-08-01T12:11:46.412Z,2.00
2022-08-01T12:12:46.382Z,1.70
2022-08-01T12:13:46.365Z,1.70
2022-08-01T12:14:46.353Z,2.00
2022-08-01T12:15:46.343Z,1.90
2022-08-01T12:16:46.364Z,1.80
2022-08-01T12:17:58.547Z,1.80
2022-08-01T12:18:47.378Z,1.80
2022-08-01T12:19:46.307Z,1.80
2022-08-01T12:21:01.528Z,1.70
2022-08-01T12:21:47.307Z,1.70
2022-08-01T12:22:46.281Z,1.80
2022-08-01T12:23:46.245Z,1.70
2022-08-01T12:24:46.237Z,1.80
2022-08-01T12:25:46.226Z,1.80
2022-08-01T12:26:46.224Z,1.60
2022-08-01T12:27:46.237Z,1.60
2022-08-01T12:28:46.216Z,1.70
2022-08-01T12:29:46.175Z,1.80
2022-08-01T12:30:46.172Z,1.70
2022-08-01T12:31:46.167Z,1.70
2022-08-01T12:32:46.165Z,1.70
2022-08-01T12:33:46.145Z,1.90
2022-08-01T12:34:46.134Z,1.90
2022-08-01T12:35:46.105Z,1.80
2022-08-01T12:36:46.097Z,1.80
2022-08-01T12:37:46.077Z,1.80
2022-08-01T12:38:46.097Z,1.70
2022-08-01T12:39:46.058Z,1.60
2022-08-01T12:40:46.130Z,1.80
2022-08-01T12:41:46.035Z,1.70
2022-08-01T12:42:46.023Z,1.70
2022-08-01T12:43:46.032Z,1.70
2022-08-01T12:44:46.040Z,1.70
2022-08-01T12:45:54.386Z,1.60
2022-08-01T12:46:47.018Z,1.70
2022-08-01T12:47:45.972Z,1.40
2022-08-01T12:48:45.970Z,1.70
2022-08-01T12:49:45.957Z,1.40
2022-08-01T12:50:45.940Z,1.50
2022-08-01T12:51:45.935Z,1.70
2022-08-01T12:52:46.908Z,1.60
2022-08-01T12:53:45.919Z,1.80
2022-08-01T12:54:45.885Z,1.80
2022-08-01T12:55:58.238Z,1.60
2022-08-01T12:56:47.379Z,1.40
2022-08-01T12:57:45.853Z,1.70
2022-08-01T12:58:45.871Z,1.40
2022-08-01T12:59:45.842Z,1.60
2022-08-01T13:00:45.966Z,1.50
2022-08-01T13:01:45.857Z,2.00
2022-08-01T13:02:45.802Z,1.40
2022-08-01T13:03:45.803Z,1.60
2022-08-01T13:04:47.036Z,1.50
2022-08-01T13:05:45.773Z,1.50
2022-08-01T13:06:45.764Z,1.50
2022-08-01T13:07:46.193Z,1.70
2022-08-01T13:08:45.745Z,1.70
2022-08-01T13:09:45.717Z,1.70
2022-08-01T13:10:45.722Z,1.60
2022-08-01T13:11:54.015Z,1.60
2022-08-01T13:12:46.685Z,1.70
2022-08-01T13:13:45.689Z,1.60
2022-08-01T13:14:45.661Z,2.00
2022-08-01T13:15:45.638Z,1.50
2022-08-01T13:16:56.818Z,1.40
2022-08-01T13:17:46.628Z,1.50
2022-08-01T13:18:45.646Z,1.70